sensor_id;sensor_type;location;lat;lon;timestamp;pressure;altitude;pressure_sealevel;temperature;humidity
40155;BME280;25875;48.202;16.334;2023-05-01T00:02:10;99424.91;;;12.36;45.46
40155;BME280;25875;48.202;16.334;2023-05-01T00:04:37;99418.63;;;12.37;45.27
40155;BME280;25875;48.202;16.334;2023-05-01T00:07:04;99422.22;;;12.36;45.42
40155;BME280;25875;48.202;16.334;2023-05-01T00:09:30;99418.72;;;12.35;45.41
40155;BME280;25875;48.202;16.334;2023-05-01T00:11:57;99423.09;;;12.36;45.37
40155;BME280;25875;48.202;16.334;2023-05-01T00:14:24;99389.66;;;12.18;45.43
40155;BME280;25875;48.202;16.334;2023-05-01T00:16:51;99417.97;;;12.33;45.11
40155;BME280;25875;48.202;16.334;2023-05-01T00:19:19;99164.94;;;10.86;45.32
40155;BME280;25875;48.202;16.334;2023-05-01T00:21:46;99411.22;;;12.28;45.29
40155;BME280;25875;48.202;16.334;2023-05-01T00:24:13;99406.00;;;12.26;45.16
40155;BME280;25875;48.202;16.334;2023-05-01T00:26:39;99410.47;;;12.26;45.44
40155;BME280;25875;48.202;16.334;2023-05-01T00:29:06;99406.19;;;12.23;45.33
40155;BME280;25875;48.202;16.334;2023-05-01T00:31:34;99409.88;;;12.21;45.39
40155;BME280;25875;48.202;16.334;2023-05-01T00:34:01;99410.13;;;12.16;45.32
40155;BME280;25875;48.202;16.334;2023-05-01T00:36:30;99409.38;;;12.14;45.23
40155;BME280;25875;48.202;16.334;2023-05-01T00:38:57;99404.16;;;12.12;45.25
40155;BME280;25875;48.202;16.334;2023-05-01T00:41:24;99396.28;;;12.11;45.21
40155;BME280;25875;48.202;16.334;2023-05-01T00:43:50;99400.81;;;12.09;45.41
40155;BME280;25875;48.202;16.334;2023-05-01T00:46:17;99402.72;;;12.07;45.41
40155;BME280;25875;48.202;16.334;2023-05-01T00:48:44;99407.38;;;12.03;45.51
40155;BME280;25875;48.202;16.334;2023-05-01T00:51:11;99364.41;;;11.81;45.41
40155;BME280;25875;48.202;16.334;2023-05-01T00:53:42;99394.31;;;11.99;45.33
40155;BME280;25875;48.202;16.334;2023-05-01T00:56:10;99386.44;;;11.97;45.52
40155;BME280;25875;48.202;16.334;2023-05-01T00:58:37;99394.50;;;11.96;45.51
40155;BME280;25875;48.202;16.334;2023-05-01T01:01:04;99356.91;;;11.73;45.47
40155;BME280;25875;48.202;16.334;2023-05-01T01:03:32;99394.59;;;11.94;45.44
40155;BME280;25875;48.202;16.334;2023-05-01T01:06:05;99397.44;;;11.91;45.51
40155;BME280;25875;48.202;16.334;2023-05-01T01:08:38;99392.31;;;11.88;45.42
40155;BME280;25875;48.202;16.334;2023-05-01T01:11:13;99372.06;;;11.71;45.37
40155;BME280;25875;48.202;16.334;2023-05-01T01:13:46;99263.66;;;11.05;45.40
40155;BME280;25875;48.202;16.334;2023-05-01T01:16:22;99391.72;;;11.83;45.23
40155;BME280;25875;48.202;16.334;2023-05-01T01:18:54;99392.69;;;11.82;45.34
40155;BME280;25875;48.202;16.334;2023-05-01T01:21:25;99338.44;;;11.42;45.40
40155;BME280;25875;48.202;16.334;2023-05-01T01:24:11;99403.56;;;11.77;45.39
40155;BME280;25875;48.202;16.334;2023-05-01T01:27:28;99345.28;;;11.46;45.12
40155;BME280;25875;48.202;16.334;2023-05-01T01:30:33;99357.34;;;11.51;45.51
40155;BME280;25875;48.202;16.334;2023-05-01T01:36:07;99247.03;;;10.72;45.51
40155;BME280;25875;48.202;16.334;2023-05-01T01:38:39;99318.75;;;11.16;45.54
40155;BME280;25875;48.202;16.334;2023-05-01T01:41:11;99390.25;;;11.63;45.68
40155;BME280;25875;48.202;16.334;2023-05-01T01:43:42;99253.44;;;10.83;45.60
40155;BME280;25875;48.202;16.334;2023-05-01T01:46:11;99385.13;;;11.60;45.55
40155;BME280;25875;48.202;16.334;2023-05-01T01:48:40;99379.06;;;11.58;45.55
40155;BME280;25875;48.202;16.334;2023-05-01T01:51:13;99379.25;;;11.55;45.42
40155;BME280;25875;48.202;16.334;2023-05-01T01:53:48;99372.41;;;11.51;45.75
40155;BME280;25875;48.202;16.334;2023-05-01T01:56:19;99374.28;;;11.49;45.63
40155;BME280;25875;48.202;16.334;2023-05-01T01:58:47;99378.84;;;11.47;45.82
40155;BME280;25875;48.202;16.334;2023-05-01T02:01:17;99380.03;;;11.41;45.84
40155;BME280;25875;48.202;16.334;2023-05-01T02:03:45;99365.91;;;11.41;46.11
40155;BME280;25875;48.202;16.334;2023-05-01T02:06:14;99303.81;;;10.99;46.04
40155;BME280;25875;48.202;16.334;2023-05-01T02:08:44;99341.66;;;11.17;45.98
40155;BME280;25875;48.202;16.334;2023-05-01T02:11:12;99363.97;;;11.29;46.23
40155;BME280;25875;48.202;16.334;2023-05-01T02:13:41;99368.44;;;11.28;46.18
40155;BME280;25875;48.202;16.334;2023-05-01T02:16:10;99375.88;;;11.21;46.09
40155;BME280;25875;48.202;16.334;2023-05-01T02:18:39;99372.81;;;11.13;46.41
40155;BME280;25875;48.202;16.334;2023-05-01T02:21:06;99375.06;;;11.05;46.39
40155;BME280;25875;48.202;16.334;2023-05-01T02:23:35;99368.91;;;11.05;46.45
40155;BME280;25875;48.202;16.334;2023-05-01T02:26:02;99301.16;;;10.68;46.43
40155;BME280;25875;48.202;16.334;2023-05-01T02:28:30;99352.81;;;10.92;46.48
40155;BME280;25875;48.202;16.334;2023-05-01T02:30:58;99313.56;;;10.67;46.67
40155;BME280;25875;48.202;16.334;2023-05-01T02:33:24;99351.13;;;10.91;46.74
40155;BME280;25875;48.202;16.334;2023-05-01T02:35:51;99351.19;;;10.89;46.77
40155;BME280;25875;48.202;16.334;2023-05-01T02:38:18;99345.22;;;10.86;46.75
40155;BME280;25875;48.202;16.334;2023-05-01T02:40:51;99344.94;;;10.75;47.00
40155;BME280;25875;48.202;16.334;2023-05-01T02:43:20;99350.56;;;10.69;47.23
40155;BME280;25875;48.202;16.334;2023-05-01T02:45:49;99324.25;;;10.50;47.22
40155;BME280;25875;48.202;16.334;2023-05-01T02:48:20;99342.78;;;10.66;47.27
40155;BME280;25875;48.202;16.334;2023-05-01T02:50:49;99232.44;;;10.02;47.32
40155;BME280;25875;48.202;16.334;2023-05-01T02:53:17;99337.66;;;10.63;47.41
40155;BME280;25875;48.202;16.334;2023-05-01T02:55:46;99332.88;;;10.53;48.03
40155;BME280;25875;48.202;16.334;2023-05-01T02:58:14;99340.91;;;10.52;48.24
40155;BME280;25875;48.202;16.334;2023-05-01T03:00:41;99342.78;;;10.50;48.48
40155;BME280;25875;48.202;16.334;2023-05-01T03:03:09;99326.38;;;10.43;48.51
40155;BME280;25875;48.202;16.334;2023-05-01T03:05:36;99343.13;;;10.44;48.90
40155;BME280;25875;48.202;16.334;2023-05-01T03:08:04;99337.13;;;10.40;49.16
40155;BME280;25875;48.202;16.334;2023-05-01T03:10:31;99339.88;;;10.39;49.18
40155;BME280;25875;48.202;16.334;2023-05-01T03:12:59;99340.03;;;10.36;49.35
40155;BME280;25875;48.202;16.334;2023-05-01T03:15:26;99128.06;;;9.08;49.50
40155;BME280;25875;48.202;16.334;2023-05-01T03:17:53;99271.88;;;9.90;49.62
40155;BME280;25875;48.202;16.334;2023-05-01T03:20:19;99242.53;;;9.62;49.82
40155;BME280;25875;48.202;16.334;2023-05-01T03:22:46;99338.13;;;10.22;50.00
40155;BME280;25875;48.202;16.334;2023-05-01T03:25:13;99336.44;;;10.21;50.21
40155;BME280;25875;48.202;16.334;2023-05-01T03:27:40;99336.50;;;10.19;50.40
40155;BME280;25875;48.202;16.334;2023-05-01T03:30:09;99334.97;;;10.15;50.76
40155;BME280;25875;48.202;16.334;2023-05-01T03:32:37;99360.75;;;10.12;50.60
40155;BME280;25875;48.202;16.334;2023-05-01T03:35:05;99345.03;;;10.09;50.52
40155;BME280;25875;48.202;16.334;2023-05-01T03:37:32;99339.22;;;10.02;50.77
40155;BME280;25875;48.202;16.334;2023-05-01T03:39:59;99337.50;;;10.01;50.75
40155;BME280;25875;48.202;16.334;2023-05-01T03:42:26;99337.56;;;10.00;50.78
40155;BME280;25875;48.202;16.334;2023-05-01T03:44:52;99341.31;;;9.95;50.94
40155;BME280;25875;48.202;16.334;2023-05-01T03:47:21;99331.66;;;9.94;51.06
40155;BME280;25875;48.202;16.334;2023-05-01T03:49:47;99335.41;;;9.90;50.99
40155;BME280;25875;48.202;16.334;2023-05-01T03:52:14;99337.22;;;9.90;51.12
40155;BME280;25875;48.202;16.334;2023-05-01T03:54:41;99329.34;;;9.88;51.09
40155;BME280;25875;48.202;16.334;2023-05-01T03:57:09;99285.44;;;9.51;51.17
40155;BME280;25875;48.202;16.334;2023-05-01T03:59:38;99327.78;;;9.84;51.17
40155;BME280;25875;48.202;16.334;2023-05-01T04:02:08;99278.66;;;9.46;51.26
40155;BME280;25875;48.202;16.334;2023-05-01T04:04:36;99334.97;;;9.82;51.45
40155;BME280;25875;48.202;16.334;2023-05-01T04:07:02;99289.09;;;9.49;51.35
40155;BME280;25875;48.202;16.334;2023-05-01T04:09:30;99338.88;;;9.75;51.52
40155;BME280;25875;48.202;16.334;2023-05-01T04:11:56;99336.28;;;9.74;51.62
40155;BME280;25875;48.202;16.334;2023-05-01T04:14:23;99338.94;;;9.74;51.64
40155;BME280;25875;48.202;16.334;2023-05-01T04:16:50;99335.53;;;9.72;51.77
40155;BME280;25875;48.202;16.334;2023-05-01T04:19:16;99337.31;;;9.71;51.67
40155;BME280;25875;48.202;16.334;2023-05-01T04:21:45;99349.84;;;9.68;51.71
40155;BME280;25875;48.202;16.334;2023-05-01T04:24:12;99338.41;;;9.67;51.87
40155;BME280;25875;48.202;16.334;2023-05-01T04:26:40;99344.63;;;9.66;51.95
40155;BME280;25875;48.202;16.334;2023-05-01T04:29:07;99342.91;;;9.65;52.05
40155;BME280;25875;48.202;16.334;2023-05-01T04:31:34;99334.03;;;9.66;52.00
40155;BME280;25875;48.202;16.334;2023-05-01T04:34:01;99329.69;;;9.65;52.04
40155;BME280;25875;48.202;16.334;2023-05-01T04:36:28;99329.59;;;9.67;52.27
40155;BME280;25875;48.202;16.334;2023-05-01T04:38:58;99332.34;;;9.65;52.31
40155;BME280;25875;48.202;16.334;2023-05-01T04:41:25;99320.34;;;9.58;52.21
40155;BME280;25875;48.202;16.334;2023-05-01T04:43:53;99334.22;;;9.63;52.39
40155;BME280;25875;48.202;16.334;2023-05-01T04:46:20;99265.56;;;9.25;52.44
40155;BME280;25875;48.202;16.334;2023-05-01T04:48:47;99337.47;;;9.68;52.69
40155;BME280;25875;48.202;16.334;2023-05-01T04:51:13;99336.47;;;9.71;52.61
40155;BME280;25875;48.202;16.334;2023-05-01T04:53:40;99344.31;;;9.72;52.67
40155;BME280;25875;48.202;16.334;2023-05-01T04:56:08;99316.09;;;9.55;52.74
40155;BME280;25875;48.202;16.334;2023-05-01T04:58:35;99345.78;;;9.78;52.58
40155;BME280;25875;48.202;16.334;2023-05-01T05:01:01;99338.69;;;9.78;52.57
40155;BME280;25875;48.202;16.334;2023-05-01T05:03:28;99337.75;;;9.79;52.30
40155;BME280;25875;48.202;16.334;2023-05-01T05:05:55;99336.06;;;9.78;52.72
40155;BME280;25875;48.202;16.334;2023-05-01T05:08:22;99326.16;;;9.82;52.59
40155;BME280;25875;48.202;16.334;2023-05-01T05:10:49;99334.81;;;9.85;52.38
40155;BME280;25875;48.202;16.334;2023-05-01T05:13:22;99341.72;;;9.88;52.50
40155;BME280;25875;48.202;16.334;2023-05-01T05:15:49;99333.69;;;9.89;52.42
40155;BME280;25875;48.202;16.334;2023-05-01T05:18:16;99337.91;;;9.93;52.33
40155;BME280;25875;48.202;16.334;2023-05-01T05:20:42;99276.84;;;9.63;52.15
40155;BME280;25875;48.202;16.334;2023-05-01T05:23:09;99335.88;;;9.99;52.04
40155;BME280;25875;48.202;16.334;2023-05-01T05:25:36;99338.25;;;10.03;51.72
40155;BME280;25875;48.202;16.334;2023-05-01T05:28:03;99342.66;;;9.87;51.02
40155;BME280;25875;48.202;16.334;2023-05-01T05:30:31;99285.25;;;9.72;50.60
40155;BME280;25875;48.202;16.334;2023-05-01T05:32:58;99317.75;;;9.91;50.23
40155;BME280;25875;48.202;16.334;2023-05-01T05:35:25;99345.03;;;10.09;50.04
40155;BME280;25875;48.202;16.334;2023-05-01T05:37:52;99343.06;;;10.12;49.80
40155;BME280;25875;48.202;16.334;2023-05-01T05:40:18;99344.63;;;10.16;49.98
40155;BME280;25875;48.202;16.334;2023-05-01T05:42:45;99336.44;;;10.21;50.03
40155;BME280;25875;48.202;16.334;2023-05-01T05:45:12;99347.03;;;10.21;49.79
40155;BME280;25875;48.202;16.334;2023-05-01T05:47:40;99174.81;;;9.25;49.76
40155;BME280;25875;48.202;16.334;2023-05-01T05:50:07;99350.03;;;10.31;49.58
40155;BME280;25875;48.202;16.334;2023-05-01T05:52:34;99344.41;;;10.37;49.44
40155;BME280;25875;48.202;16.334;2023-05-01T05:55:01;99338.00;;;10.41;49.57
40155;BME280;25875;48.202;16.334;2023-05-01T05:57:28;99338.59;;;10.46;49.54
40155;BME280;25875;48.202;16.334;2023-05-01T05:59:54;99342.88;;;10.48;49.59
40155;BME280;25875;48.202;16.334;2023-05-01T06:02:23;99306.53;;;10.35;49.68
40155;BME280;25875;48.202;16.334;2023-05-01T06:04:51;99306.44;;;10.36;49.59
40155;BME280;25875;48.202;16.334;2023-05-01T06:07:18;99341.50;;;10.57;49.63
40155;BME280;25875;48.202;16.334;2023-05-01T06:09:44;99340.41;;;10.61;49.55
40155;BME280;25875;48.202;16.334;2023-05-01T06:12:11;99338.34;;;10.66;49.51
40155;BME280;25875;48.202;16.334;2023-05-01T06:14:38;99335.34;;;10.72;49.41
40155;BME280;25875;48.202;16.334;2023-05-01T06:17:05;99329.75;;;10.78;49.09
40155;BME280;25875;48.202;16.334;2023-05-01T06:19:32;99279.63;;;10.58;48.76
40155;BME280;25875;48.202;16.334;2023-05-01T06:22:00;99323.66;;;10.92;48.64
40155;BME280;25875;48.202;16.334;2023-05-01T06:24:27;99325.78;;;11.01;48.61
40155;BME280;25875;48.202;16.334;2023-05-01T06:26:53;99316.94;;;11.16;48.41
40155;BME280;25875;48.202;16.334;2023-05-01T06:29:20;99324.88;;;11.32;48.06
40155;BME280;25875;48.202;16.334;2023-05-01T06:31:47;99325.56;;;11.50;47.78
40155;BME280;25875;48.202;16.334;2023-05-01T06:34:14;99326.47;;;11.65;47.04
40155;BME280;25875;48.202;16.334;2023-05-01T06:36:41;99278.38;;;11.55;47.01
40155;BME280;25875;48.202;16.334;2023-05-01T06:39:09;99322.81;;;11.96;46.24
40155;BME280;25875;48.202;16.334;2023-05-01T06:41:36;99329.50;;;12.17;46.23
40155;BME280;25875;48.202;16.334;2023-05-01T06:44:03;99268.94;;;12.08;45.58
40155;BME280;25875;48.202;16.334;2023-05-01T06:46:30;99335.06;;;12.55;44.91
40155;BME280;25875;48.202;16.334;2023-05-01T06:48:57;99334.28;;;12.67;44.81
40155;BME280;25875;48.202;16.334;2023-05-01T06:51:24;99329.41;;;12.88;44.42
40155;BME280;25875;48.202;16.334;2023-05-01T06:53:50;99324.78;;;13.04;44.27
40155;BME280;25875;48.202;16.334;2023-05-01T06:56:18;99270.78;;;12.90;43.85
40155;BME280;25875;48.202;16.334;2023-05-01T06:58:45;99312.94;;;13.35;43.83
40155;BME280;25875;48.202;16.334;2023-05-01T07:01:12;99223.84;;;12.89;43.49
40155;BME280;25875;48.202;16.334;2023-05-01T07:03:39;99308.34;;;13.64;43.53
40155;BME280;25875;48.202;16.334;2023-05-01T07:06:06;99320.63;;;13.79;43.12
40155;BME280;25875;48.202;16.334;2023-05-01T07:08:32;99262.34;;;13.62;43.31
40155;BME280;25875;48.202;16.334;2023-05-01T07:10:59;99302.06;;;13.91;42.35
40155;BME280;25875;48.202;16.334;2023-05-01T07:13:28;99316.47;;;14.01;42.90
40155;BME280;25875;48.202;16.334;2023-05-01T07:15:55;99308.56;;;13.99;42.62
40155;BME280;25875;48.202;16.334;2023-05-01T07:18:21;99310.16;;;14.02;42.46
40155;BME280;25875;48.202;16.334;2023-05-01T07:20:48;99305.38;;;14.07;42.67
40155;BME280;25875;48.202;16.334;2023-05-01T07:23:15;99224.53;;;13.57;42.83
40155;BME280;25875;48.202;16.334;2023-05-01T07:25:42;99309.44;;;14.00;42.96
40155;BME280;25875;48.202;16.334;2023-05-01T07:28:10;99315.59;;;14.00;43.18
40155;BME280;25875;48.202;16.334;2023-05-01T07:30:39;99314.53;;;14.03;42.46
40155;BME280;25875;48.202;16.334;2023-05-01T07:33:06;99263.94;;;13.77;42.46
40155;BME280;25875;48.202;16.334;2023-05-01T07:35:32;99217.59;;;13.67;42.44
40155;BME280;25875;48.202;16.334;2023-05-01T07:37:59;99318.78;;;14.31;42.38
40155;BME280;25875;48.202;16.334;2023-05-01T07:40:26;99303.63;;;14.31;42.25
40155;BME280;25875;48.202;16.334;2023-05-01T07:42:53;99311.19;;;14.37;42.10
40155;BME280;25875;48.202;16.334;2023-05-01T07:45:19;99299.78;;;14.35;42.58
40155;BME280;25875;48.202;16.334;2023-05-01T07:47:48;99306.16;;;14.45;42.53
40155;BME280;25875;48.202;16.334;2023-05-01T07:50:16;99300.06;;;14.56;42.51
40155;BME280;25875;48.202;16.334;2023-05-01T07:52:42;99296.69;;;14.67;42.24
40155;BME280;25875;48.202;16.334;2023-05-01T07:55:10;99294.97;;;14.66;42.42
40155;BME280;25875;48.202;16.334;2023-05-01T07:57:37;99289.00;;;14.62;42.55
40155;BME280;25875;48.202;16.334;2023-05-01T08:00:05;99247.13;;;14.26;42.67
40155;BME280;25875;48.202;16.334;2023-05-01T08:02:32;99297.97;;;14.61;42.73
40155;BME280;25875;48.202;16.334;2023-05-01T08:05:00;99290.03;;;14.72;42.68
40155;BME280;25875;48.202;16.334;2023-05-01T08:07:28;99262.81;;;14.80;42.45
40155;BME280;25875;48.202;16.334;2023-05-01T08:09:55;99231.81;;;14.90;41.89
40155;BME280;25875;48.202;16.334;2023-05-01T08:12:21;99255.34;;;15.20;42.07
40155;BME280;25875;48.202;16.334;2023-05-01T08:14:48;99293.41;;;15.46;42.01
40155;BME280;25875;48.202;16.334;2023-05-01T08:17:15;99284.44;;;15.47;41.98
40155;BME280;25875;48.202;16.334;2023-05-01T08:19:42;99281.91;;;15.57;42.26
40155;BME280;25875;48.202;16.334;2023-05-01T08:22:11;99277.78;;;15.64;42.24
40155;BME280;25875;48.202;16.334;2023-05-01T08:24:38;99278.31;;;15.69;41.99
40155;BME280;25875;48.202;16.334;2023-05-01T08:27:06;99277.91;;;15.62;42.29
40155;BME280;25875;48.202;16.334;2023-05-01T08:29:33;99241.69;;;15.47;42.76
40155;BME280;25875;48.202;16.334;2023-05-01T08:32:00;99250.69;;;15.57;42.80
40155;BME280;25875;48.202;16.334;2023-05-01T08:34:26;99209.03;;;15.44;42.87
40155;BME280;25875;48.202;16.334;2023-05-01T08:36:53;99281.16;;;16.01;42.39
40155;BME280;25875;48.202;16.334;2023-05-01T08:39:21;99263.06;;;16.04;42.33
40155;BME280;25875;48.202;16.334;2023-05-01T08:41:48;99250.66;;;16.03;42.35
40155;BME280;25875;48.202;16.334;2023-05-01T08:44:15;99271.91;;;16.16;42.41
40155;BME280;25875;48.202;16.334;2023-05-01T08:46:46;99272.88;;;16.15;42.12
40155;BME280;25875;48.202;16.334;2023-05-01T08:49:14;99273.97;;;16.24;42.91
40155;BME280;25875;48.202;16.334;2023-05-01T08:51:44;99270.69;;;16.31;42.08
40155;BME280;25875;48.202;16.334;2023-05-01T08:54:12;99243.97;;;16.20;42.67
40155;BME280;25875;48.202;16.334;2023-05-01T08:56:42;99260.47;;;16.48;42.44
40155;BME280;25875;48.202;16.334;2023-05-01T08:59:10;99208.19;;;16.44;42.38
40155;BME280;25875;48.202;16.334;2023-05-01T09:01:37;99257.84;;;16.91;42.22
40155;BME280;25875;48.202;16.334;2023-05-01T09:04:06;99242.38;;;16.94;41.87
40155;BME280;25875;48.202;16.334;2023-05-01T09:06:33;99242.63;;;16.91;41.98
40155;BME280;25875;48.202;16.334;2023-05-01T09:09:00;99240.06;;;16.90;42.02
40155;BME280;25875;48.202;16.334;2023-05-01T09:11:27;99209.81;;;16.78;42.16
40155;BME280;25875;48.202;16.334;2023-05-01T09:13:56;99230.50;;;17.08;41.33
40155;BME280;25875;48.202;16.334;2023-05-01T09:16:23;99200.31;;;16.85;41.28
40155;BME280;25875;48.202;16.334;2023-05-01T09:18:50;99158.78;;;16.59;41.64
40155;BME280;25875;48.202;16.334;2023-05-01T09:21:17;99189.00;;;16.82;41.82
40155;BME280;25875;48.202;16.334;2023-05-01T09:23:44;99217.19;;;17.18;41.29
40155;BME280;25875;48.202;16.334;2023-05-01T09:26:11;99217.81;;;17.21;41.16
40155;BME280;25875;48.202;16.334;2023-05-01T09:28:38;99186.22;;;17.04;40.91
40155;BME280;25875;48.202;16.334;2023-05-01T09:31:22;99208.59;;;17.35;40.56
40155;BME280;25875;48.202;16.334;2023-05-01T09:33:53;99183.28;;;17.07;40.33
40155;BME280;25875;48.202;16.334;2023-05-01T09:36:22;99141.28;;;16.66;41.10
40155;BME280;25875;48.202;16.334;2023-05-01T09:38:49;99125.44;;;16.63;41.44
40155;BME280;25875;48.202;16.334;2023-05-01T09:41:16;99172.25;;;17.00;41.38
40155;BME280;25875;48.202;16.334;2023-05-01T09:43:48;99202.06;;;17.28;40.79
40155;BME280;25875;48.202;16.334;2023-05-01T09:46:16;99203.50;;;17.32;41.73
40155;BME280;25875;48.202;16.334;2023-05-01T09:48:53;99213.13;;;17.35;40.38
40155;BME280;25875;48.202;16.334;2023-05-01T09:51:22;99202.66;;;17.31;40.93
40155;BME280;25875;48.202;16.334;2023-05-01T09:53:50;99203.63;;;17.30;41.12
40155;BME280;25875;48.202;16.334;2023-05-01T09:56:18;99163.56;;;17.08;41.58
40155;BME280;25875;48.202;16.334;2023-05-01T09:58:45;99208.28;;;17.28;41.17
40155;BME280;25875;48.202;16.334;2023-05-01T10:01:12;99196.19;;;17.34;41.40
40155;BME280;25875;48.202;16.334;2023-05-01T10:03:40;99197.50;;;17.40;41.66
40155;BME280;25875;48.202;16.334;2023-05-01T10:06:10;99192.00;;;17.41;41.17
40155;BME280;25875;48.202;16.334;2023-05-01T10:08:44;99096.31;;;17.02;41.32
40155;BME280;25875;48.202;16.334;2023-05-01T10:11:11;99190.19;;;17.62;41.26
40155;BME280;25875;48.202;16.334;2023-05-01T10:13:38;99178.22;;;17.67;41.13
40155;BME280;25875;48.202;16.334;2023-05-01T10:18:46;99177.69;;;17.73;41.64
40155;BME280;25875;48.202;16.334;2023-05-01T10:21:15;99149.84;;;17.64;41.36
40155;BME280;25875;48.202;16.334;2023-05-01T10:23:42;99176.88;;;17.82;41.69
40155;BME280;25875;48.202;16.334;2023-05-01T10:26:12;99185.22;;;17.88;41.11
40155;BME280;25875;48.202;16.334;2023-05-01T10:28:43;99164.19;;;17.84;41.32
40155;BME280;25875;48.202;16.334;2023-05-01T10:31:10;99160.22;;;17.78;41.87
40155;BME280;25875;48.202;16.334;2023-05-01T10:33:38;99131.28;;;17.72;41.31
40155;BME280;25875;48.202;16.334;2023-05-01T10:36:09;99035.94;;;17.18;41.46
40155;BME280;25875;48.202;16.334;2023-05-01T10:38:38;99160.56;;;17.94;41.60
40155;BME280;25875;48.202;16.334;2023-05-01T10:41:10;99158.44;;;17.98;41.84
40155;BME280;25875;48.202;16.334;2023-05-01T10:43:37;99162.97;;;17.98;41.57
40155;BME280;25875;48.202;16.334;2023-05-01T10:46:25;99143.06;;;18.00;41.17
40155;BME280;25875;48.202;16.334;2023-05-01T10:48:56;99069.66;;;17.51;41.78
40155;BME280;25875;48.202;16.334;2023-05-01T10:51:25;99059.34;;;17.47;41.68
40155;BME280;25875;48.202;16.334;2023-05-01T10:54:22;99146.44;;;17.92;41.64
40155;BME280;25875;48.202;16.334;2023-05-01T10:56:53;99149.28;;;18.01;41.93
40155;BME280;25875;48.202;16.334;2023-05-01T10:59:20;99161.56;;;18.03;42.12
40155;BME280;25875;48.202;16.334;2023-05-01T11:01:47;99129.13;;;18.06;41.92
40155;BME280;25875;48.202;16.334;2023-05-01T11:04:44;99132.09;;;18.13;42.31
40155;BME280;25875;48.202;16.334;2023-05-01T11:07:14;99125.34;;;18.18;42.06
40155;BME280;25875;48.202;16.334;2023-05-01T11:09:44;99116.75;;;18.24;41.92
40155;BME280;25875;48.202;16.334;2023-05-01T11:12:12;99113.94;;;18.36;41.76
40155;BME280;25875;48.202;16.334;2023-05-01T11:15:00;99101.66;;;18.43;41.17
40155;BME280;25875;48.202;16.334;2023-05-01T11:17:44;99030.31;;;17.92;40.98
40155;BME280;25875;48.202;16.334;2023-05-01T11:20:12;99106.03;;;18.34;41.10
40155;BME280;25875;48.202;16.334;2023-05-01T11:22:43;99112.91;;;18.17;41.16
40155;BME280;25875;48.202;16.334;2023-05-01T11:25:19;99110.66;;;18.13;41.59
40155;BME280;25875;48.202;16.334;2023-05-01T11:27:47;99028.00;;;17.68;41.55
40155;BME280;25875;48.202;16.334;2023-05-01T11:30:14;99094.56;;;18.13;42.14
40155;BME280;25875;48.202;16.334;2023-05-01T11:32:42;99055.72;;;17.98;41.79
40155;BME280;25875;48.202;16.334;2023-05-01T11:35:16;99095.00;;;18.18;41.33
40155;BME280;25875;48.202;16.334;2023-05-01T11:37:44;99099.50;;;18.17;41.99
40155;BME280;25875;48.202;16.334;2023-05-01T11:40:23;99088.63;;;18.19;42.75
40155;BME280;25875;48.202;16.334;2023-05-01T11:42:56;99031.28;;;17.81;42.93
40155;BME280;25875;48.202;16.334;2023-05-01T11:45:25;99093.13;;;18.09;42.72
40155;BME280;25875;48.202;16.334;2023-05-01T11:47:52;99089.44;;;18.00;43.36
40155;BME280;25875;48.202;16.334;2023-05-01T11:50:19;99091.13;;;17.91;43.30
40155;BME280;25875;48.202;16.334;2023-05-01T11:52:48;99090.69;;;17.86;43.60
40155;BME280;25875;48.202;16.334;2023-05-01T11:55:17;99029.03;;;17.46;43.47
40155;BME280;25875;48.202;16.334;2023-05-01T11:57:50;99071.50;;;17.81;43.31
40155;BME280;25875;48.202;16.334;2023-05-01T12:00:25;99045.16;;;17.56;43.58
40155;BME280;25875;48.202;16.334;2023-05-01T12:02:57;99074.47;;;17.88;43.61
40155;BME280;25875;48.202;16.334;2023-05-01T12:05:24;99067.00;;;17.91;43.66
40155;BME280;25875;48.202;16.334;2023-05-01T12:08:04;99080.53;;;17.90;43.43
40155;BME280;25875;48.202;16.334;2023-05-01T12:10:32;99074.19;;;17.91;43.37
40155;BME280;25875;48.202;16.334;2023-05-01T12:13:02;99064.31;;;17.91;43.61
40155;BME280;25875;48.202;16.334;2023-05-01T12:15:29;99061.94;;;17.98;43.56
40155;BME280;25875;48.202;16.334;2023-05-01T12:17:56;99055.72;;;18.07;43.65
40155;BME280;25875;48.202;16.334;2023-05-01T12:20:33;99044.16;;;17.97;44.13
40155;BME280;25875;48.202;16.334;2023-05-01T12:23:02;99049.53;;;18.07;43.66
40155;BME280;25875;48.202;16.334;2023-05-01T12:25:31;99027.78;;;17.90;43.46
40155;BME280;25875;48.202;16.334;2023-05-01T12:28:01;99034.00;;;18.01;43.46
40155;BME280;25875;48.202;16.334;2023-05-01T12:30:29;99052.63;;;18.02;43.50
40155;BME280;25875;48.202;16.334;2023-05-01T12:32:57;99046.00;;;18.06;43.73
40155;BME280;25875;48.202;16.334;2023-05-01T12:35:30;99053.63;;;18.11;43.39
40155;BME280;25875;48.202;16.334;2023-05-01T12:37:57;99042.63;;;18.14;43.18
40155;BME280;25875;48.202;16.334;2023-05-01T12:40:25;99025.25;;;18.08;43.17
40155;BME280;25875;48.202;16.334;2023-05-01T12:42:56;99044.03;;;18.08;43.28
40155;BME280;25875;48.202;16.334;2023-05-01T12:45:24;99030.63;;;18.08;43.41
40155;BME280;25875;48.202;16.334;2023-05-01T12:47:51;99034.69;;;18.03;43.14
40155;BME280;25875;48.202;16.334;2023-05-01T12:50:18;99035.69;;;18.02;43.58
40155;BME280;25875;48.202;16.334;2023-05-01T12:52:46;99025.53;;;18.05;43.36
40155;BME280;25875;48.202;16.334;2023-05-01T12:55:14;99030.19;;;18.03;42.61
40155;BME280;25875;48.202;16.334;2023-05-01T12:57:51;99018.34;;;18.06;43.35
40155;BME280;25875;48.202;16.334;2023-05-01T13:00:18;99021.00;;;18.06;43.32
40155;BME280;25875;48.202;16.334;2023-05-01T13:02:47;99015.78;;;18.04;42.90
40155;BME280;25875;48.202;16.334;2023-05-01T13:05:14;99005.63;;;18.08;42.67
40155;BME280;25875;48.202;16.334;2023-05-01T13:07:46;99001.81;;;18.10;42.28